createdAt,value
2017-07-25T00:01:46.551Z,63.90
2017-07-25T00:04:14.107Z,63.50
2017-07-25T00:06:41.635Z,63.50
2017-07-25T00:09:09.214Z,63.30
2017-07-25T00:11:36.715Z,63.30
2017-07-25T00:14:04.246Z,63.30
2017-07-25T00:16:31.779Z,63.80
2017-07-25T00:18:59.306Z,63.10
2017-07-25T00:21:26.852Z,63.10
2017-07-25T00:23:54.420Z,63.40
2017-07-25T00:26:21.922Z,64.30
2017-07-25T00:28:49.474Z,63.50
2017-07-25T00:31:16.998Z,63.80
2017-07-25T00:33:44.533Z,63.00
2017-07-25T00:36:12.081Z,62.90
2017-07-25T00:38:39.621Z,64.40
2017-07-25T00:41:07.145Z,64.10
2017-07-25T00:43:34.700Z,63.10
2017-07-25T00:46:02.240Z,63.90
2017-07-25T00:48:29.823Z,63.40
2017-07-25T00:50:57.358Z,62.80
2017-07-25T00:53:24.894Z,63.30
2017-07-25T00:55:52.411Z,63.60
2017-07-25T00:58:20.724Z,63.20
2017-07-25T01:00:48.274Z,63.10
2017-07-25T01:03:15.796Z,63.60
2017-07-25T01:05:43.314Z,64.20
2017-07-25T01:08:10.846Z,64.40
2017-07-25T01:10:38.373Z,64.00
2017-07-25T01:13:05.918Z,63.70
2017-07-25T01:15:33.485Z,63.40
2017-07-25T01:18:01.012Z,63.60
2017-07-25T01:20:28.583Z,62.80
2017-07-25T01:22:56.107Z,63.50
2017-07-25T01:25:23.626Z,63.60
2017-07-25T01:27:51.154Z,63.00
2017-07-25T01:30:18.694Z,64.10
2017-07-25T01:32:46.214Z,63.00
2017-07-25T01:35:13.772Z,63.10
2017-07-25T01:37:41.274Z,63.30
2017-07-25T01:40:08.843Z,64.10
2017-07-25T01:42:36.358Z,63.40
2017-07-25T01:45:04.684Z,63.20
2017-07-25T01:47:32.204Z,63.20
2017-07-25T01:50:00.511Z,62.60
2017-07-25T01:52:28.033Z,62.60
2017-07-25T01:54:55.635Z,63.30
2017-07-25T01:57:23.162Z,63.10
2017-07-25T01:59:51.471Z,62.90
2017-07-25T02:02:18.985Z,62.90
2017-07-25T02:04:47.326Z,64.00
2017-07-25T02:07:14.874Z,64.00
2017-07-25T02:09:42.398Z,64.00
2017-07-25T02:12:09.965Z,63.30
2017-07-25T02:14:37.509Z,64.20
2017-07-25T02:17:05.038Z,64.50
2017-07-25T02:19:32.590Z,64.20
2017-07-25T02:22:00.147Z,65.20
2017-07-25T02:24:27.676Z,64.90
2017-07-25T02:26:55.233Z,63.90
2017-07-25T02:29:22.769Z,64.10
2017-07-25T02:31:50.351Z,64.80
2017-07-25T02:34:17.889Z,64.80
2017-07-25T02:36:46.162Z,64.60
2017-07-25T02:39:14.450Z,64.20
2017-07-25T02:41:42.733Z,65.10
2017-07-25T02:44:11.049Z,65.50
2017-07-25T02:46:38.554Z,65.50
2017-07-25T02:49:06.093Z,65.30
2017-07-25T02:51:33.650Z,64.90
2017-07-25T02:54:01.208Z,64.80
2017-07-25T02:56:28.774Z,64.70
2017-07-25T02:58:56.291Z,65.10
2017-07-25T03:01:23.810Z,65.70
2017-07-25T03:03:51.390Z,66.00
2017-07-25T03:06:18.937Z,67.40
2017-07-25T03:08:46.462Z,66.10
2017-07-25T03:11:13.985Z,66.00
2017-07-25T03:13:41.515Z,66.20
2017-07-25T03:16:09.089Z,65.30
2017-07-25T03:18:36.622Z,66.80
2017-07-25T03:21:04.159Z,66.00
2017-07-25T03:24:03.323Z,67.00
2017-07-25T03:26:30.887Z,67.40
2017-07-25T03:28:58.391Z,68.10
2017-07-25T03:31:25.934Z,67.70
2017-07-25T03:33:53.444Z,67.80
2017-07-25T03:36:21.753Z,67.90
2017-07-25T03:38:49.263Z,67.90
2017-07-25T03:41:16.842Z,66.00
2017-07-25T03:43:45.126Z,68.80
2017-07-25T03:46:12.670Z,67.90
2017-07-25T03:48:40.190Z,68.00
2017-07-25T03:51:07.731Z,67.10
2017-07-25T03:53:35.273Z,67.90
2017-07-25T03:56:02.822Z,68.10
2017-07-25T03:58:30.362Z,69.00
2017-07-25T04:00:58.677Z,68.00
2017-07-25T04:03:26.199Z,67.80
2017-07-25T04:05:54.514Z,68.20
2017-07-25T04:08:22.038Z,68.80
2017-07-25T04:10:50.347Z,69.10
2017-07-25T04:13:17.846Z,69.00
2017-07-25T04:15:45.382Z,68.40
2017-07-25T04:18:12.963Z,68.80
2017-07-25T04:20:40.509Z,68.80
2017-07-25T04:23:08.033Z,69.60
2017-07-25T04:25:35.559Z,69.40
2017-07-25T04:28:03.091Z,69.60
2017-07-25T04:30:30.646Z,69.30
2017-07-25T04:32:58.181Z,70.10
2017-07-25T04:35:25.734Z,72.00
2017-07-25T04:37:53.308Z,71.50
2017-07-25T04:40:20.858Z,69.90
2017-07-25T04:42:48.374Z,69.40
2017-07-25T04:45:15.943Z,71.90
2017-07-25T04:47:43.504Z,71.90
2017-07-25T04:50:11.819Z,70.40
2017-07-25T04:52:39.351Z,70.30
2017-07-25T04:55:07.659Z,69.50
2017-07-25T04:57:42.191Z,69.50
2017-07-25T05:00:12.511Z,70.30
2017-07-25T05:02:40.978Z,70.00
2017-07-25T05:05:08.931Z,69.90
2017-07-25T05:07:39.770Z,70.70
2017-07-25T05:10:09.142Z,70.40
2017-07-25T05:12:36.659Z,70.30
2017-07-25T05:15:04.226Z,70.80
2017-07-25T05:17:31.790Z,71.30
2017-07-25T05:19:59.340Z,71.00
2017-07-25T05:22:27.078Z,71.80
2017-07-25T05:25:06.043Z,70.40
2017-07-25T05:27:40.259Z,70.30
2017-07-25T05:30:07.977Z,69.90
2017-07-25T05:32:39.398Z,69.30
2017-07-25T05:37:44.294Z,69.80
2017-07-25T05:40:11.795Z,69.70
2017-07-25T05:42:39.354Z,68.50
2017-07-25T05:45:07.310Z,70.30
2017-07-25T05:47:35.911Z,69.50
2017-07-25T05:50:03.479Z,70.90
2017-07-25T05:52:31.035Z,70.00
2017-07-25T05:54:58.572Z,70.80
2017-07-25T05:57:26.159Z,69.80
2017-07-25T05:59:53.669Z,70.20
2017-07-25T06:02:21.219Z,69.90
2017-07-25T06:04:51.451Z,70.00
2017-07-25T06:07:19.005Z,70.00
2017-07-25T06:09:46.533Z,70.10
2017-07-25T06:12:14.058Z,70.20
2017-07-25T06:14:41.626Z,69.90
2017-07-25T06:17:09.173Z,69.40
2017-07-25T06:19:36.670Z,69.50
2017-07-25T06:22:04.233Z,69.80
2017-07-25T06:24:31.736Z,69.70
2017-07-25T06:26:59.303Z,69.00
2017-07-25T06:29:26.864Z,69.20
2017-07-25T06:31:54.445Z,69.60
2017-07-25T06:34:21.970Z,69.30
2017-07-25T06:36:49.506Z,69.30
2017-07-25T06:39:17.793Z,69.10
2017-07-25T06:41:46.114Z,68.80
2017-07-25T06:44:13.774Z,68.60
2017-07-25T06:46:41.342Z,69.10
2017-07-25T06:49:08.911Z,70.00
2017-07-25T06:51:36.446Z,69.70
2017-07-25T06:54:03.973Z,69.00
2017-07-25T06:56:32.267Z,69.20
2017-07-25T06:58:59.819Z,69.10
2017-07-25T07:01:27.349Z,69.00
2017-07-25T07:03:54.879Z,68.90
2017-07-25T07:06:22.429Z,68.30
2017-07-25T07:08:49.966Z,68.90
2017-07-25T07:11:17.513Z,69.60
2017-07-25T07:13:45.791Z,69.50
2017-07-25T07:16:14.077Z,68.60
2017-07-25T07:18:41.570Z,68.40
2017-07-25T07:21:09.140Z,68.50
2017-07-25T07:23:36.664Z,68.50
2017-07-25T07:26:04.169Z,68.00
2017-07-25T07:28:31.702Z,67.90
2017-07-25T07:30:59.220Z,68.00
2017-07-25T07:33:26.801Z,68.20
2017-07-25T07:35:54.305Z,68.00
2017-07-25T07:38:21.864Z,67.70
2017-07-25T07:40:49.394Z,68.10
2017-07-25T07:43:16.929Z,67.80
2017-07-25T07:45:44.509Z,67.60
2017-07-25T07:48:12.063Z,67.80
2017-07-25T07:50:39.614Z,67.70
2017-07-25T07:53:07.186Z,67.90
2017-07-25T07:55:34.741Z,68.00
2017-07-25T07:58:02.293Z,67.90
2017-07-25T08:00:29.858Z,66.60
2017-07-25T08:02:57.412Z,65.90
2017-07-25T08:05:24.919Z,66.70
2017-07-25T08:07:52.446Z,64.90
2017-07-25T08:10:19.968Z,66.60
2017-07-25T08:12:48.284Z,68.30
2017-07-25T08:15:15.802Z,68.20
2017-07-25T08:17:44.121Z,67.50
2017-07-25T08:20:11.645Z,67.40
2017-07-25T08:22:40.007Z,66.50
2017-07-25T08:25:08.353Z,64.90
2017-07-25T08:27:35.911Z,64.80
2017-07-25T08:30:03.458Z,67.80
2017-07-25T08:32:30.990Z,68.10
2017-07-25T08:34:58.524Z,68.40
2017-07-25T08:37:26.349Z,67.60
2017-07-25T08:39:53.850Z,67.60
2017-07-25T08:42:21.414Z,66.80
2017-07-25T08:44:49.714Z,69.80
2017-07-25T08:47:17.307Z,69.20
2017-07-25T08:49:44.837Z,70.10
2017-07-25T08:52:12.367Z,69.00
2017-07-25T08:54:40.644Z,68.30
2017-07-25T08:57:08.975Z,68.60
2017-07-25T08:59:36.490Z,68.50
2017-07-25T09:02:04.778Z,67.90
2017-07-25T09:04:33.074Z,68.60
2017-07-25T09:07:00.607Z,68.50
2017-07-25T09:09:28.109Z,67.90
2017-07-25T09:11:55.642Z,68.30
2017-07-25T09:14:23.224Z,67.90
2017-07-25T09:16:50.772Z,69.00
2017-07-25T09:19:18.322Z,69.00
2017-07-25T09:21:45.843Z,68.40
2017-07-25T09:24:13.383Z,68.50
2017-07-25T09:26:40.920Z,68.80
2017-07-25T09:29:08.487Z,68.90
2017-07-25T09:31:36.019Z,69.10
2017-07-25T09:34:03.555Z,68.50
2017-07-25T09:36:31.905Z,68.40
2017-07-25T09:38:59.433Z,68.30
2017-07-25T09:41:26.963Z,68.40
2017-07-25T09:43:54.549Z,68.40
2017-07-25T09:46:22.056Z,66.40
2017-07-25T09:48:49.610Z,68.00
2017-07-25T09:51:17.167Z,68.20
2017-07-25T09:53:44.712Z,67.70
2017-07-25T09:56:12.260Z,67.30
2017-07-25T09:58:39.790Z,65.90
2017-07-25T10:01:08.070Z,64.60
2017-07-25T10:03:35.600Z,64.60
2017-07-25T10:06:03.913Z,66.30
2017-07-25T10:08:31.442Z,66.30
2017-07-25T10:10:59.747Z,66.90
2017-07-25T10:13:27.274Z,67.20
2017-07-25T10:15:55.556Z,66.60
2017-07-25T10:18:23.126Z,66.60
2017-07-25T10:20:50.637Z,66.20
2017-07-25T10:23:18.186Z,67.10
2017-07-25T10:25:45.711Z,66.00
2017-07-25T10:28:14.026Z,66.30
2017-07-25T10:30:41.541Z,66.20
2017-07-25T10:33:09.077Z,66.60
2017-07-25T10:35:36.610Z,66.40
2017-07-25T10:38:04.229Z,66.80
2017-07-25T10:40:32.510Z,66.70
2017-07-25T10:43:00.842Z,67.60
2017-07-25T10:45:28.365Z,67.50
2017-07-25T10:47:55.922Z,66.90
2017-07-25T10:50:23.442Z,66.40
2017-07-25T10:52:50.987Z,68.70
2017-07-25T10:55:18.505Z,68.30
2017-07-25T10:57:46.050Z,68.40
2017-07-25T11:00:13.586Z,66.80
2017-07-25T11:02:41.942Z,70.20
2017-07-25T11:05:09.453Z,69.10
2017-07-25T11:07:36.996Z,68.60
2017-07-25T11:10:05.300Z,67.00
2017-07-25T11:12:32.837Z,66.90
2017-07-25T11:15:01.160Z,71.00
2017-07-25T11:17:28.682Z,70.90
2017-07-25T11:19:56.210Z,71.20
2017-07-25T11:22:23.761Z,70.80
2017-07-25T11:24:51.301Z,71.60
2017-07-25T11:27:18.891Z,72.80
2017-07-25T11:29:46.418Z,73.00
2017-07-25T11:32:13.956Z,72.50
2017-07-25T11:34:41.519Z,71.70
2017-07-25T11:37:09.043Z,71.50
2017-07-25T11:39:37.427Z,70.70
2017-07-25T11:42:05.706Z,70.40
2017-07-25T11:44:33.234Z,70.20
2017-07-25T11:47:00.755Z,71.40
2017-07-25T11:49:29.213Z,71.00
2017-07-25T11:51:56.892Z,70.70
2017-07-25T11:54:24.495Z,69.90
2017-07-25T11:56:53.211Z,70.70
2017-07-25T11:59:20.786Z,71.80
2017-07-25T12:01:50.890Z,70.80
2017-07-25T12:04:23.481Z,71.80
2017-07-25T12:06:53.697Z,71.70
2017-07-25T12:09:22.023Z,70.40
2017-07-25T12:11:49.556Z,70.40
2017-07-25T12:14:17.204Z,70.30
2017-07-25T12:16:44.731Z,71.20
2017-07-25T12:19:12.264Z,70.60
2017-07-25T12:21:45.645Z,71.30
2017-07-25T12:24:13.187Z,71.60
2017-07-25T12:26:40.713Z,72.10
2017-07-25T12:29:08.259Z,71.40
2017-07-25T12:31:35.793Z,71.10
2017-07-25T12:34:03.313Z,71.20
2017-07-25T12:36:30.852Z,72.40
2017-07-25T12:38:58.426Z,71.50
2017-07-25T12:41:26.707Z,71.10
2017-07-25T12:43:54.994Z,69.10
2017-07-25T12:46:22.500Z,69.10
2017-07-25T12:48:50.114Z,69.90
2017-07-25T12:51:17.626Z,71.30
2017-07-25T12:53:45.954Z,71.70
2017-07-25T12:56:13.498Z,71.80
2017-07-25T12:58:41.832Z,70.00
2017-07-25T13:01:36.106Z,69.90
2017-07-25T13:04:03.714Z,71.50
2017-07-25T13:06:32.010Z,70.50
2017-07-25T13:09:00.336Z,70.50
2017-07-25T13:11:27.874Z,70.40
2017-07-25T13:13:55.418Z,70.40
2017-07-25T13:16:22.974Z,70.00
2017-07-25T13:18:50.497Z,70.10
2017-07-25T13:21:18.074Z,69.90
2017-07-25T13:23:46.362Z,69.70
2017-07-25T13:26:13.905Z,69.70
2017-07-25T13:28:41.464Z,71.20
2017-07-25T13:31:09.805Z,69.70
2017-07-25T13:33:37.314Z,69.60
2017-07-25T13:36:05.633Z,70.20
2017-07-25T13:38:33.159Z,70.20
2017-07-25T13:41:01.442Z,71.20
2017-07-25T13:43:28.962Z,71.20
2017-07-25T13:45:56.526Z,71.80
2017-07-25T13:48:24.064Z,72.20
2017-07-25T13:50:51.625Z,72.20
2017-07-25T13:53:19.186Z,70.60
2017-07-25T13:55:46.720Z,71.80
2017-07-25T13:58:14.235Z,71.70
2017-07-25T14:00:42.558Z,73.50
2017-07-25T14:03:10.122Z,72.80
2017-07-25T14:05:37.674Z,72.30
2017-07-25T14:08:06.143Z,73.20
2017-07-25T14:10:33.664Z,73.10
2017-07-25T14:15:35.197Z,72.60
2017-07-25T14:18:02.726Z,70.50
2017-07-25T14:20:30.314Z,72.40
2017-07-25T14:22:57.816Z,72.60
2017-07-25T14:25:25.383Z,72.40
2017-07-25T14:27:52.900Z,73.70
2017-07-25T14:30:20.462Z,72.40
2017-07-25T14:32:48.015Z,73.20
2017-07-25T14:35:15.550Z,72.20
2017-07-25T14:37:43.087Z,71.40
2017-07-25T14:40:10.630Z,70.10
2017-07-25T14:42:38.179Z,70.70
2017-07-25T14:45:05.716Z,73.00
2017-07-25T14:47:33.221Z,72.30
2017-07-25T14:50:01.547Z,70.90
2017-07-25T14:52:29.074Z,70.90
2017-07-25T14:55:32.534Z,71.80
2017-07-25T14:58:00.145Z,72.60
2017-07-25T15:00:29.381Z,73.10
2017-07-25T15:02:58.673Z,72.40
2017-07-25T15:05:30.435Z,71.70
2017-07-25T15:07:57.958Z,70.20
2017-07-25T15:10:25.506Z,71.30
2017-07-25T15:12:53.073Z,70.40
2017-07-25T15:15:20.635Z,70.90
2017-07-25T15:17:48.193Z,70.10
2017-07-25T15:20:16.515Z,71.70
2017-07-25T15:22:44.047Z,71.70
2017-07-25T15:25:11.611Z,71.70
2017-07-25T15:27:39.173Z,69.80
2017-07-25T15:30:06.703Z,70.40
2017-07-25T15:32:34.979Z,71.60
2017-07-25T15:35:02.546Z,71.60
2017-07-25T15:37:30.086Z,71.30
2017-07-25T15:39:57.660Z,73.90
2017-07-25T15:42:25.202Z,73.10
2017-07-25T15:44:52.773Z,72.50
2017-07-25T15:47:20.306Z,72.30
2017-07-25T15:49:47.878Z,73.20
2017-07-25T15:52:15.422Z,73.00
2017-07-25T15:54:42.932Z,73.00
2017-07-25T15:57:10.458Z,73.70
2017-07-25T15:59:37.991Z,73.20
2017-07-25T16:02:05.549Z,73.00
2017-07-25T16:04:33.074Z,73.70
2017-07-25T16:07:00.646Z,72.40
2017-07-25T16:09:28.178Z,74.10
2017-07-25T16:11:56.465Z,75.20
2017-07-25T16:14:24.040Z,75.20
2017-07-25T16:16:51.580Z,73.90
2017-07-25T16:19:19.123Z,74.70
2017-07-25T16:21:46.662Z,75.00
2017-07-25T16:24:14.206Z,73.20
2017-07-25T16:26:41.730Z,74.50
2017-07-25T16:29:09.274Z,74.40
2017-07-25T16:31:36.838Z,73.90
2017-07-25T16:34:04.383Z,73.70
2017-07-25T16:36:31.950Z,72.80
2017-07-25T16:39:00.251Z,71.70
2017-07-25T16:41:27.857Z,71.70
2017-07-25T16:43:55.388Z,71.80
2017-07-25T16:46:22.947Z,71.30
2017-07-25T16:48:50.464Z,71.20
2017-07-25T16:51:18.787Z,70.80
2017-07-25T16:53:46.325Z,70.80
2017-07-25T16:56:13.867Z,70.80
2017-07-25T16:58:42.197Z,70.70
2017-07-25T17:01:09.738Z,70.60
2017-07-25T17:03:37.349Z,71.00
2017-07-25T17:06:04.942Z,70.80
2017-07-25T17:08:32.477Z,70.80
2017-07-25T17:10:59.997Z,70.40
2017-07-25T17:13:27.534Z,71.10
2017-07-25T17:15:55.078Z,70.70
2017-07-25T17:18:22.663Z,70.90
2017-07-25T17:20:50.210Z,70.90
2017-07-25T17:23:26.158Z,70.70
2017-07-25T17:25:54.250Z,70.80
2017-07-25T17:28:21.975Z,71.30
2017-07-25T17:30:49.526Z,70.80
2017-07-25T17:33:17.073Z,70.80
2017-07-25T17:35:44.604Z,70.10
2017-07-25T17:38:12.134Z,70.50
2017-07-25T17:40:39.701Z,70.30
2017-07-25T17:43:07.217Z,70.50
2017-07-25T17:45:34.764Z,70.30
2017-07-25T17:48:02.295Z,70.40
2017-07-25T17:50:29.826Z,70.50
2017-07-25T17:52:57.382Z,70.80
2017-07-25T17:55:25.657Z,71.10
2017-07-25T17:57:53.972Z,70.90
2017-07-25T18:00:21.507Z,70.90
2017-07-25T18:02:49.793Z,71.10
2017-07-25T18:05:17.326Z,71.10
2017-07-25T18:07:45.634Z,71.10
2017-07-25T18:10:13.180Z,71.10
2017-07-25T18:12:40.800Z,71.10
2017-07-25T18:15:08.332Z,71.30
2017-07-25T18:17:35.890Z,70.90
2017-07-25T18:20:03.423Z,70.60
2017-07-25T18:22:31.726Z,71.50
2017-07-25T18:24:59.241Z,71.50
2017-07-25T18:27:27.549Z,71.80
2017-07-25T18:29:55.086Z,71.70
2017-07-25T18:32:23.374Z,73.00
2017-07-25T18:34:50.889Z,73.00
2017-07-25T18:37:18.413Z,72.80
2017-07-25T18:39:45.972Z,72.20
2017-07-25T18:42:14.352Z,72.30
2017-07-25T18:44:41.858Z,71.80
2017-07-25T18:47:09.374Z,72.10
2017-07-25T18:49:36.903Z,72.00
2017-07-25T18:52:05.217Z,72.90
2017-07-25T18:54:32.726Z,71.90
2017-07-25T18:57:00.347Z,72.80
2017-07-25T18:59:27.866Z,73.00
2017-07-25T19:01:55.401Z,72.50
2017-07-25T19:04:23.053Z,72.00
2017-07-25T19:06:50.564Z,71.40
2017-07-25T19:09:18.123Z,71.40
2017-07-25T19:11:45.657Z,71.90
2017-07-25T19:14:14.630Z,71.80
2017-07-25T19:16:42.146Z,71.70
2017-07-25T19:19:09.699Z,71.70
2017-07-25T19:21:37.265Z,71.70
2017-07-25T19:24:04.823Z,71.60
2017-07-25T19:26:32.386Z,71.70
2017-07-25T19:28:59.924Z,72.20
2017-07-25T19:31:27.456Z,72.60
2017-07-25T19:33:54.974Z,72.70
2017-07-25T19:36:22.466Z,73.50
2017-07-25T19:38:49.993Z,72.00
2017-07-25T19:41:17.497Z,72.20
2017-07-25T19:43:45.832Z,71.90
2017-07-25T19:46:13.355Z,71.90
2017-07-25T19:48:40.934Z,72.10
2017-07-25T19:51:08.455Z,71.80
2017-07-25T19:53:36.790Z,71.60
2017-07-25T19:56:04.298Z,71.60
2017-07-25T19:58:33.360Z,71.00
2017-07-25T20:01:00.893Z,70.90
2017-07-25T20:03:28.433Z,70.70
2017-07-25T20:05:55.975Z,71.20
2017-07-25T20:08:24.287Z,70.40
2017-07-25T20:10:51.811Z,70.30
2017-07-25T20:13:20.138Z,70.60
2017-07-25T20:15:47.655Z,70.50
2017-07-25T20:18:15.210Z,70.10
2017-07-25T20:20:42.775Z,70.30
2017-07-25T20:23:10.328Z,70.00
2017-07-25T20:25:37.882Z,70.40
2017-07-25T20:28:06.205Z,70.60
2017-07-25T20:30:33.734Z,70.50
2017-07-25T20:33:01.294Z,70.40
2017-07-25T20:35:28.842Z,70.10
2017-07-25T20:37:57.123Z,69.90
2017-07-25T20:40:24.676Z,69.90
2017-07-25T20:42:52.954Z,70.20
2017-07-25T20:45:20.551Z,70.20
2017-07-25T20:47:48.077Z,69.50
2017-07-25T20:50:16.389Z,69.80
2017-07-25T20:52:43.914Z,69.80
2017-07-25T20:55:11.439Z,70.00
2017-07-25T20:57:38.938Z,69.70
2017-07-25T21:00:07.246Z,69.20
2017-07-25T21:02:34.787Z,69.20
2017-07-25T21:05:02.330Z,68.90
2017-07-25T21:07:30.617Z,69.00
2017-07-25T21:09:58.170Z,69.00
2017-07-25T21:12:26.469Z,68.90
2017-07-25T21:14:54.025Z,68.70
2017-07-25T21:17:21.589Z,69.00
2017-07-25T21:19:49.114Z,68.40
2017-07-25T21:22:16.617Z,68.80
2017-07-25T21:24:44.167Z,68.30
2017-07-25T21:27:11.700Z,68.40
2017-07-25T21:29:39.266Z,68.30
2017-07-25T21:32:06.787Z,68.80
2017-07-25T21:34:34.380Z,69.20
2017-07-25T21:37:01.890Z,69.00
2017-07-25T21:39:29.450Z,69.10
2017-07-25T21:41:56.969Z,69.40
2017-07-25T21:44:25.355Z,69.70
2017-07-25T21:46:52.914Z,69.60
2017-07-25T21:49:20.457Z,69.90
2017-07-25T21:51:48.028Z,70.10
2017-07-25T21:54:16.386Z,69.80
2017-07-25T21:56:44.661Z,70.70
2017-07-25T21:59:12.286Z,69.70
2017-07-25T22:01:51.620Z,69.70
2017-07-25T22:04:31.052Z,69.60
2017-07-25T22:06:58.624Z,69.80
2017-07-25T22:09:26.165Z,69.90
2017-07-25T22:11:53.695Z,70.10
2017-07-25T22:14:22.026Z,70.20
2017-07-25T22:16:49.533Z,70.20
2017-07-25T22:19:17.842Z,70.10
2017-07-25T22:21:45.375Z,70.00
2017-07-25T22:24:12.915Z,70.10
2017-07-25T22:26:40.444Z,69.90
2017-07-25T22:29:07.989Z,70.10
2017-07-25T22:31:35.516Z,70.00
2017-07-25T22:34:03.081Z,70.00
2017-07-25T22:36:30.626Z,70.30
2017-07-25T22:38:58.905Z,70.00
2017-07-25T22:41:27.214Z,69.40
2017-07-25T22:43:54.710Z,69.40
2017-07-25T22:46:22.255Z,69.40
2017-07-25T22:48:49.806Z,69.20
2017-07-25T22:51:17.354Z,69.80
2017-07-25T22:53:44.859Z,69.60
2017-07-25T22:56:12.391Z,69.60
2017-07-25T22:58:39.934Z,69.70
2017-07-25T23:01:07.474Z,69.90
2017-07-25T23:03:34.978Z,69.80
2017-07-25T23:06:03.333Z,69.70
2017-07-25T23:08:30.851Z,70.00
2017-07-25T23:10:59.169Z,70.00
2017-07-25T23:13:26.721Z,69.90
2017-07-25T23:15:54.247Z,69.70
2017-07-25T23:18:22.549Z,69.80
2017-07-25T23:20:50.086Z,69.80
2017-07-25T23:23:18.367Z,69.50
2017-07-25T23:25:46.690Z,69.30
2017-07-25T23:28:14.205Z,69.30
2017-07-25T23:30:42.515Z,69.50
2017-07-25T23:33:10.082Z,69.50
2017-07-25T23:35:37.605Z,69.60
2017-07-25T23:38:05.881Z,70.40
2017-07-25T23:40:33.434Z,69.70
2017-07-25T23:43:01.007Z,69.70
2017-07-25T23:45:28.533Z,69.70
2017-07-25T23:47:56.038Z,69.70
2017-07-25T23:50:23.610Z,70.20
2017-07-25T23:52:51.147Z,70.10
2017-07-25T23:55:18.736Z,70.20
2017-07-25T23:57:46.253Z,70.00
